createdAt,value
2023-03-29T00:01:07.904Z,14.95
2023-03-29T00:03:40.762Z,14.47
2023-03-29T00:06:13.425Z,14.85
2023-03-29T00:09:06.073Z,14.65
2023-03-29T00:11:37.815Z,16.00
2023-03-29T00:14:09.190Z,17.07
2023-03-29T00:16:40.447Z,15.93
2023-03-29T00:19:11.557Z,15.38
2023-03-29T00:21:42.721Z,15.68
2023-03-29T00:24:13.946Z,16.35
2023-03-29T00:26:45.602Z,16.97
2023-03-29T00:29:17.163Z,15.18
2023-03-29T00:31:49.623Z,16.77
2023-03-29T00:34:20.921Z,16.37
2023-03-29T00:36:52.303Z,16.85
2023-03-29T00:39:24.029Z,18.62
2023-03-29T00:41:55.042Z,17.05
2023-03-29T00:45:03.214Z,15.28
2023-03-29T00:47:49.172Z,17.05
2023-03-29T00:50:27.224Z,17.42
2023-03-29T00:53:06.465Z,17.25
2023-03-29T00:55:40.079Z,17.75
2023-03-29T00:58:14.357Z,16.30
2023-03-29T01:00:56.596Z,16.25
2023-03-29T01:03:30.236Z,16.25
2023-03-29T01:06:04.051Z,16.48
2023-03-29T01:08:43.645Z,16.12
2023-03-29T01:11:19.825Z,15.98
2023-03-29T01:13:53.848Z,16.93
2023-03-29T01:16:26.955Z,16.65
2023-03-29T01:18:59.421Z,14.90
2023-03-29T01:21:36.263Z,15.88
2023-03-29T01:24:19.402Z,16.45
2023-03-29T01:27:07.737Z,16.55
2023-03-29T01:29:41.327Z,16.15
2023-03-29T01:32:20.592Z,16.82
2023-03-29T01:34:59.844Z,15.78
2023-03-29T01:37:37.648Z,15.75
2023-03-29T01:40:15.878Z,14.50
2023-03-29T01:42:55.401Z,18.12
2023-03-29T01:45:29.289Z,17.10
2023-03-29T01:48:19.203Z,16.12
2023-03-29T01:50:58.699Z,16.73
2023-03-29T01:53:38.274Z,16.55
2023-03-29T01:56:12.649Z,16.75
2023-03-29T01:58:46.252Z,16.62
2023-03-29T02:01:20.083Z,17.20
2023-03-29T02:03:55.323Z,16.77
2023-03-29T02:06:28.554Z,17.15
2023-03-29T02:08:59.833Z,18.25
2023-03-29T02:11:33.860Z,17.70
2023-03-29T02:14:12.193Z,16.37
2023-03-29T02:16:45.660Z,16.67
2023-03-29T02:19:18.329Z,18.87
2023-03-29T02:21:53.182Z,18.23
2023-03-29T02:24:26.232Z,17.57
2023-03-29T02:26:57.680Z,18.95
2023-03-29T02:29:34.123Z,18.82
2023-03-29T02:32:19.719Z,18.82
2023-03-29T02:34:53.362Z,17.70
2023-03-29T02:37:30.222Z,18.02
2023-03-29T02:40:01.331Z,17.63
2023-03-29T02:42:33.446Z,17.60
2023-03-29T02:45:05.018Z,19.17
2023-03-29T02:47:47.643Z,17.52
2023-03-29T02:50:18.798Z,18.30
2023-03-29T02:52:55.539Z,18.75
2023-03-29T03:00:35.222Z,17.60
2023-03-29T03:03:07.830Z,17.37
2023-03-29T03:05:39.502Z,16.40
2023-03-29T03:08:10.830Z,16.37
2023-03-29T03:10:42.164Z,16.42
2023-03-29T03:13:12.907Z,16.80
2023-03-29T03:15:44.071Z,17.37
2023-03-29T03:18:15.782Z,17.27
2023-03-29T03:20:48.143Z,18.05
2023-03-29T03:23:19.328Z,17.27
2023-03-29T03:25:50.468Z,17.05
2023-03-29T03:28:21.826Z,14.25
2023-03-29T03:30:55.405Z,13.62
2023-03-29T03:33:31.761Z,13.48
2023-03-29T03:36:08.990Z,13.60
2023-03-29T03:38:41.035Z,13.98
2023-03-29T03:41:12.030Z,13.08
2023-03-29T03:43:44.628Z,14.55
2023-03-29T03:46:15.815Z,14.30
2023-03-29T03:48:48.127Z,15.40
2023-03-29T03:51:19.683Z,14.35
2023-03-29T03:53:50.839Z,16.27
2023-03-29T03:56:21.982Z,15.32
2023-03-29T03:58:53.000Z,14.90
2023-03-29T04:01:25.149Z,15.93
2023-03-29T04:03:56.373Z,17.32
2023-03-29T04:06:29.134Z,17.37
2023-03-29T04:09:00.960Z,17.10
2023-03-29T04:11:33.098Z,16.73
2023-03-29T04:14:04.119Z,16.25
2023-03-29T04:16:35.474Z,17.87
2023-03-29T04:19:06.509Z,17.73
2023-03-29T04:21:37.463Z,16.60
2023-03-29T04:24:09.404Z,19.62
2023-03-29T04:26:40.590Z,16.25
2023-03-29T04:29:12.088Z,15.98
2023-03-29T04:31:43.401Z,15.65
2023-03-29T04:34:14.509Z,16.80
2023-03-29T04:36:45.830Z,15.03
2023-03-29T04:39:18.708Z,16.40
2023-03-29T04:41:49.813Z,17.37
2023-03-29T04:44:21.136Z,15.90
2023-03-29T04:46:52.418Z,15.68
2023-03-29T04:49:25.918Z,15.20
2023-03-29T04:51:56.024Z,14.98
2023-03-29T04:54:35.446Z,14.65
2023-03-29T04:57:08.197Z,14.50
2023-03-29T04:59:39.886Z,13.40
2023-03-29T05:02:11.517Z,13.32
2023-03-29T05:04:44.506Z,12.75
2023-03-29T05:07:16.685Z,12.90
2023-03-29T05:09:48.419Z,13.60
2023-03-29T05:12:19.763Z,10.90
2023-03-29T05:14:50.893Z,11.57
2023-03-29T05:17:22.828Z,12.40
2023-03-29T05:19:53.927Z,12.85
2023-03-29T05:22:25.205Z,11.38
2023-03-29T05:24:56.429Z,10.05
2023-03-29T05:27:29.115Z,10.30
2023-03-29T05:30:03.317Z,10.40
2023-03-29T05:32:36.009Z,9.45
2023-03-29T05:35:08.170Z,10.45
2023-03-29T05:37:40.138Z,10.23
2023-03-29T05:40:12.164Z,9.35
2023-03-29T05:42:43.309Z,9.43
2023-03-29T05:45:14.636Z,9.70
2023-03-29T05:47:45.736Z,9.20
2023-03-29T05:50:16.730Z,9.63
2023-03-29T05:52:48.851Z,9.80
2023-03-29T05:55:20.076Z,9.93
2023-03-29T05:57:51.201Z,9.45
2023-03-29T06:00:26.873Z,9.88
2023-03-29T06:03:03.632Z,9.00
2023-03-29T06:05:30.983Z,10.28
2023-03-29T06:08:02.169Z,10.30
2023-03-29T06:10:38.057Z,10.03
2023-03-29T06:13:08.391Z,10.78
2023-03-29T06:15:39.391Z,9.65
2023-03-29T06:18:10.915Z,9.18
2023-03-29T06:20:41.916Z,10.30
2023-03-29T06:23:13.946Z,10.45
2023-03-29T06:25:46.335Z,9.48
2023-03-29T06:28:21.596Z,9.53
2023-03-29T06:30:56.788Z,10.55
2023-03-29T06:33:26.876Z,11.25
2023-03-29T06:35:58.154Z,10.43
2023-03-29T06:38:29.594Z,9.80
2023-03-29T06:41:08.053Z,9.58
2023-03-29T06:43:39.237Z,10.32
2023-03-29T06:46:12.048Z,9.90
2023-03-29T06:48:43.892Z,10.60
2023-03-29T06:51:14.909Z,10.90
2023-03-29T06:53:45.958Z,10.25
2023-03-29T06:56:17.164Z,10.40
2023-03-29T06:58:48.434Z,10.88
2023-03-29T07:01:19.829Z,9.98
2023-03-29T07:03:50.968Z,10.90
2023-03-29T07:06:23.460Z,11.28
2023-03-29T07:08:54.780Z,11.18
2023-03-29T07:11:26.268Z,11.45
2023-03-29T07:13:57.218Z,11.60
2023-03-29T07:16:28.473Z,11.50
2023-03-29T07:18:59.887Z,11.43
2023-03-29T07:21:31.246Z,11.68
2023-03-29T07:24:03.008Z,12.05
2023-03-29T07:26:34.074Z,12.75
2023-03-29T07:29:05.369Z,12.90
2023-03-29T07:31:37.015Z,12.07
2023-03-29T07:34:10.929Z,12.78
2023-03-29T07:36:43.845Z,10.58
2023-03-29T07:39:15.137Z,10.78
2023-03-29T07:41:47.485Z,13.85
2023-03-29T07:44:19.213Z,10.95
2023-03-29T07:46:50.664Z,10.58
2023-03-29T07:49:22.270Z,11.20
2023-03-29T07:51:53.428Z,11.38
2023-03-29T07:54:26.122Z,13.75
2023-03-29T07:56:57.526Z,12.70
2023-03-29T07:59:28.727Z,12.65
2023-03-29T08:01:59.905Z,12.40
2023-03-29T08:04:31.259Z,12.03
2023-03-29T08:07:03.086Z,11.28
2023-03-29T08:09:34.490Z,13.18
2023-03-29T08:12:05.462Z,11.90
2023-03-29T08:14:37.333Z,12.53
2023-03-29T08:17:10.423Z,11.05
2023-03-29T08:19:41.858Z,11.03
2023-03-29T08:22:14.359Z,11.08
2023-03-29T08:24:45.524Z,12.18
2023-03-29T08:27:17.093Z,11.63
2023-03-29T08:29:48.352Z,11.28
2023-03-29T08:32:19.551Z,11.68
2023-03-29T08:34:50.782Z,12.13
2023-03-29T08:37:21.722Z,11.63
2023-03-29T08:39:52.716Z,11.53
2023-03-29T08:42:43.083Z,11.53
2023-03-29T08:45:34.608Z,11.33
2023-03-29T08:48:08.491Z,11.88
2023-03-29T08:50:42.354Z,12.03
2023-03-29T08:53:19.001Z,11.95
2023-03-29T08:55:51.075Z,15.58
2023-03-29T08:58:26.883Z,11.97
2023-03-29T09:01:02.258Z,12.10
2023-03-29T09:03:54.172Z,11.25
2023-03-29T09:06:25.524Z,10.80
2023-03-29T09:08:57.557Z,11.40
2023-03-29T09:11:43.516Z,10.88
2023-03-29T09:14:41.159Z,10.43
2023-03-29T09:17:29.957Z,11.25
2023-03-29T09:20:09.601Z,10.80
2023-03-29T09:23:13.837Z,11.10
2023-03-29T09:26:05.208Z,11.38
2023-03-29T09:28:48.019Z,10.78
2023-03-29T09:31:27.345Z,11.12
2023-03-29T09:34:03.707Z,11.40
2023-03-29T09:36:45.648Z,11.18
2023-03-29T09:39:18.187Z,11.38
2023-03-29T09:42:08.471Z,11.18
2023-03-29T09:44:45.134Z,10.00
2023-03-29T09:47:37.578Z,10.82
2023-03-29T09:50:27.707Z,10.38
2023-03-29T09:52:50.496Z,10.68
2023-03-29T09:55:23.887Z,10.50
2023-03-29T09:57:55.411Z,10.68
2023-03-29T10:00:26.584Z,10.18
2023-03-29T10:03:00.102Z,9.83
2023-03-29T10:05:34.062Z,9.78
2023-03-29T10:08:06.490Z,10.05
2023-03-29T10:10:39.046Z,10.85
2023-03-29T10:13:12.748Z,11.55
2023-03-29T10:15:44.382Z,11.00
2023-03-29T10:18:17.994Z,10.55
2023-03-29T10:20:49.500Z,10.95
2023-03-29T10:23:21.856Z,10.63
2023-03-29T10:25:53.272Z,10.98
2023-03-29T10:28:25.809Z,10.35
2023-03-29T10:30:59.423Z,10.05
2023-03-29T10:33:33.052Z,10.03
2023-03-29T10:36:06.194Z,10.32
2023-03-29T10:38:39.324Z,9.63
2023-03-29T10:41:15.170Z,12.18
2023-03-29T10:43:57.918Z,11.93
2023-03-29T10:46:34.056Z,13.68
2023-03-29T10:49:08.818Z,14.33
2023-03-29T10:51:40.098Z,14.53
2023-03-29T10:54:13.797Z,13.60
2023-03-29T10:56:48.097Z,13.48
2023-03-29T10:59:33.828Z,13.93
2023-03-29T11:02:19.730Z,14.75
2023-03-29T11:04:54.769Z,13.22
2023-03-29T11:07:37.072Z,13.72
2023-03-29T11:10:27.316Z,14.50
2023-03-29T11:13:17.508Z,13.45
2023-03-29T11:15:53.812Z,13.72
2023-03-29T11:19:01.191Z,12.78
2023-03-29T11:21:38.031Z,13.80
2023-03-29T11:24:14.192Z,13.22
2023-03-29T11:27:16.495Z,13.40
2023-03-29T11:29:53.162Z,12.33
2023-03-29T11:35:29.721Z,11.53
2023-03-29T11:38:21.308Z,12.55
2023-03-29T11:41:06.701Z,14.28
2023-03-29T11:43:40.503Z,14.43
2023-03-29T11:46:23.115Z,14.53
2023-03-29T11:48:56.744Z,12.50
2023-03-29T11:51:33.464Z,12.68
2023-03-29T11:54:24.772Z,11.73
2023-03-29T11:57:04.114Z,11.90
2023-03-29T11:59:54.457Z,12.85
2023-03-29T12:02:28.540Z,12.78
2023-03-29T12:05:02.502Z,12.18
2023-03-29T12:07:42.381Z,12.78
2023-03-29T12:10:27.918Z,12.65
2023-03-29T12:13:07.297Z,12.73
2023-03-29T12:15:50.454Z,12.63
2023-03-29T12:18:40.687Z,12.93
2023-03-29T12:21:23.386Z,12.65
2023-03-29T12:23:54.729Z,12.63
2023-03-29T12:26:41.316Z,11.85
2023-03-29T12:29:49.931Z,12.33
2023-03-29T12:32:39.830Z,14.33
2023-03-29T12:35:39.254Z,12.98
2023-03-29T12:38:21.934Z,13.40
2023-03-29T12:41:01.745Z,13.62
2023-03-29T12:43:41.179Z,13.13
2023-03-29T12:46:15.106Z,12.98
2023-03-29T12:48:49.084Z,12.88
2023-03-29T12:51:22.863Z,12.85
2023-03-29T12:53:56.259Z,12.43
2023-03-29T12:56:32.348Z,12.50
2023-03-29T12:59:12.187Z,12.40
2023-03-29T13:01:48.086Z,12.75
2023-03-29T13:10:12.368Z,13.48
2023-03-29T13:12:47.023Z,12.70
2023-03-29T13:15:21.177Z,13.28
2023-03-29T13:17:58.013Z,13.65
2023-03-29T13:20:40.395Z,13.25
2023-03-29T13:23:41.238Z,12.88
2023-03-29T13:26:37.150Z,13.58
2023-03-29T13:29:39.348Z,13.70
2023-03-29T13:32:21.827Z,14.25
2023-03-29T13:35:11.956Z,13.50
2023-03-29T13:37:52.524Z,14.10
2023-03-29T13:40:35.499Z,13.88
2023-03-29T13:43:25.099Z,13.60
2023-03-29T13:46:05.143Z,16.70
2023-03-29T13:48:38.887Z,13.58
2023-03-29T13:51:27.264Z,13.48
2023-03-29T13:54:03.445Z,13.40
2023-03-29T13:56:42.981Z,13.28
2023-03-29T13:59:20.052Z,12.18
2023-03-29T14:02:10.484Z,13.18
2023-03-29T14:04:48.377Z,13.98
2023-03-29T14:07:22.061Z,13.78
2023-03-29T14:09:55.638Z,14.47
2023-03-29T14:12:26.838Z,14.25
2023-03-29T14:15:02.333Z,13.35
2023-03-29T14:17:35.009Z,13.45
2023-03-29T14:20:08.966Z,14.18
2023-03-29T14:22:42.583Z,14.40
2023-03-29T14:25:22.403Z,14.85
2023-03-29T14:28:13.620Z,14.47
2023-03-29T14:30:48.171Z,14.00
2023-03-29T14:33:28.099Z,13.70
2023-03-29T14:36:00.647Z,13.45
2023-03-29T14:38:33.956Z,14.05
2023-03-29T14:41:06.123Z,14.23
2023-03-29T14:43:37.189Z,13.35
2023-03-29T14:46:09.843Z,13.13
2023-03-29T14:48:41.451Z,13.30
2023-03-29T14:51:13.248Z,13.05
2023-03-29T14:53:45.139Z,14.25
2023-03-29T14:56:19.476Z,13.98
2023-03-29T14:58:50.927Z,13.85
2023-03-29T15:01:24.877Z,14.53
2023-03-29T15:04:11.220Z,13.88
2023-03-29T15:06:46.391Z,15.35
2023-03-29T15:09:28.961Z,15.10
2023-03-29T15:12:02.077Z,14.20
2023-03-29T15:14:36.077Z,15.45
2023-03-29T15:17:10.108Z,15.78
2023-03-29T15:19:42.524Z,16.02
2023-03-29T15:22:19.229Z,15.45
2023-03-29T15:27:27.298Z,15.63
2023-03-29T15:30:05.118Z,15.78
2023-03-29T15:33:06.684Z,15.88
2023-03-29T15:35:48.526Z,15.48
2023-03-29T15:39:03.596Z,15.15
2023-03-29T15:41:37.782Z,16.20
2023-03-29T15:44:10.337Z,15.48
2023-03-29T15:46:41.746Z,15.80
2023-03-29T15:49:17.153Z,15.55
2023-03-29T15:51:50.243Z,16.27
2023-03-29T15:54:33.010Z,16.17
2023-03-29T15:57:16.927Z,16.55
2023-03-29T15:59:48.156Z,15.48
2023-03-29T16:02:21.296Z,16.67
2023-03-29T16:04:54.650Z,16.77
2023-03-29T16:07:26.378Z,17.00
2023-03-29T16:10:00.539Z,16.57
2023-03-29T16:12:35.998Z,16.67
2023-03-29T16:15:16.686Z,16.25
2023-03-29T16:17:50.854Z,17.80
2023-03-29T16:20:23.680Z,16.97
2023-03-29T16:22:58.223Z,16.30
2023-03-29T16:25:29.802Z,15.75
2023-03-29T16:28:00.739Z,17.12
2023-03-29T16:30:32.641Z,17.45
2023-03-29T16:33:09.711Z,18.95
2023-03-29T16:35:42.114Z,17.82
2023-03-29T16:38:13.079Z,18.10
2023-03-29T16:40:45.884Z,18.85
2023-03-29T16:43:20.042Z,17.65
2023-03-29T16:45:52.181Z,17.05
2023-03-29T16:48:23.028Z,17.12
2023-03-29T16:50:54.202Z,18.30
2023-03-29T16:53:28.390Z,17.98
2023-03-29T16:55:58.010Z,19.27
2023-03-29T16:58:31.587Z,17.75
2023-03-29T17:01:27.747Z,18.70
2023-03-29T17:06:37.256Z,19.65
2023-03-29T17:09:11.771Z,23.12
2023-03-29T17:11:43.476Z,19.37
2023-03-29T17:14:14.814Z,19.45
2023-03-29T17:16:45.715Z,19.40
2023-03-29T17:19:16.625Z,20.17
2023-03-29T17:21:47.598Z,20.65
2023-03-29T17:24:18.543Z,19.17
2023-03-29T17:26:49.680Z,21.45
2023-03-29T17:29:21.438Z,21.20
2023-03-29T17:31:52.812Z,20.02
2023-03-29T17:34:24.628Z,21.33
2023-03-29T17:36:55.587Z,22.45
2023-03-29T17:39:28.523Z,21.42
2023-03-29T17:42:04.112Z,22.32
2023-03-29T17:44:36.504Z,21.57
2023-03-29T17:47:07.815Z,22.02
2023-03-29T17:49:38.822Z,23.47
2023-03-29T17:52:12.217Z,22.37
2023-03-29T17:54:48.032Z,22.42
2023-03-29T17:57:19.341Z,21.95
2023-03-29T17:59:50.527Z,21.45
2023-03-29T18:02:23.887Z,23.20
2023-03-29T18:04:58.502Z,22.35
2023-03-29T18:07:29.611Z,22.45
2023-03-29T18:10:03.442Z,21.52
2023-03-29T18:12:35.972Z,23.47
2023-03-29T18:15:07.728Z,23.62
2023-03-29T18:17:41.718Z,23.67
2023-03-29T18:20:13.499Z,23.10
2023-03-29T18:22:44.662Z,22.98
2023-03-29T18:25:18.392Z,23.32
2023-03-29T18:27:57.259Z,22.90
2023-03-29T18:30:28.220Z,22.62
2023-03-29T18:32:59.706Z,22.93
2023-03-29T18:35:30.987Z,23.73
2023-03-29T18:38:04.822Z,23.80
2023-03-29T18:40:37.048Z,24.27
2023-03-29T18:43:11.834Z,23.77
2023-03-29T18:45:44.784Z,25.32
2023-03-29T18:48:15.064Z,24.72
2023-03-29T18:50:52.565Z,25.43
2023-03-29T18:55:53.480Z,26.42
2023-03-29T18:58:25.347Z,25.80
2023-03-29T19:00:58.243Z,25.10
2023-03-29T19:03:29.536Z,25.90
2023-03-29T19:06:00.856Z,25.25
2023-03-29T19:08:35.190Z,25.77
2023-03-29T19:11:09.984Z,24.65
2023-03-29T19:13:39.978Z,26.60
2023-03-29T19:16:11.980Z,26.42
2023-03-29T19:18:44.445Z,27.37
2023-03-29T19:21:16.139Z,27.50
2023-03-29T19:23:48.406Z,29.92
2023-03-29T19:26:19.746Z,31.87
2023-03-29T19:31:28.968Z,27.67
2023-03-29T19:34:05.069Z,27.82
2023-03-29T19:36:36.933Z,26.60
2023-03-29T19:39:16.022Z,27.87
2023-03-29T19:41:46.745Z,27.58
2023-03-29T19:44:17.694Z,27.82
2023-03-29T19:46:55.700Z,27.27
2023-03-29T19:49:26.976Z,27.20
2023-03-29T19:51:59.925Z,27.32
2023-03-29T19:54:31.871Z,28.45
2023-03-29T19:57:02.946Z,27.13
2023-03-29T19:59:34.258Z,26.87
2023-03-29T20:02:07.860Z,28.47
2023-03-29T20:04:39.269Z,25.65
2023-03-29T20:07:11.968Z,28.80
2023-03-29T20:09:45.216Z,27.45
2023-03-29T20:12:18.825Z,28.65
2023-03-29T20:14:53.168Z,29.37
2023-03-29T20:17:26.380Z,28.10
2023-03-29T20:19:56.955Z,28.87
2023-03-29T20:22:29.374Z,28.17
2023-03-29T20:25:01.459Z,27.85
2023-03-29T20:27:32.594Z,28.77
2023-03-29T20:30:04.497Z,29.35
2023-03-29T20:32:35.923Z,29.63
2023-03-29T20:35:14.037Z,29.87
2023-03-29T20:37:45.266Z,29.80
2023-03-29T20:40:18.446Z,28.98
2023-03-29T20:42:50.641Z,29.18
2023-03-29T20:45:22.899Z,31.05
2023-03-29T20:47:55.192Z,33.30
2023-03-29T20:50:32.128Z,31.27
2023-03-29T20:53:03.625Z,32.80
2023-03-29T20:55:35.374Z,33.63
2023-03-29T20:58:06.555Z,34.18
2023-03-29T21:00:41.397Z,34.10
2023-03-29T21:03:12.541Z,32.67
2023-03-29T21:05:44.666Z,33.75
2023-03-29T21:08:18.804Z,33.25
2023-03-29T21:10:50.152Z,34.18
2023-03-29T21:13:24.197Z,35.35
2023-03-29T21:15:55.316Z,34.75
2023-03-29T21:18:26.666Z,35.75
2023-03-29T21:20:57.665Z,35.90
2023-03-29T21:23:29.012Z,35.05
2023-03-29T21:26:00.198Z,34.33
2023-03-29T21:28:32.447Z,33.13
2023-03-29T21:31:11.183Z,34.92
2023-03-29T21:33:43.571Z,34.13
2023-03-29T21:36:16.648Z,34.05
2023-03-29T21:38:47.261Z,34.23
2023-03-29T21:41:21.730Z,34.98
2023-03-29T21:43:53.644Z,34.30
2023-03-29T21:46:30.507Z,34.95
2023-03-29T21:49:04.542Z,33.65
2023-03-29T21:51:35.771Z,34.43
2023-03-29T21:54:45.148Z,33.15
2023-03-29T21:57:15.721Z,33.00
2023-03-29T21:59:49.045Z,32.03
2023-03-29T22:02:19.994Z,32.93
2023-03-29T22:04:51.424Z,33.05
2023-03-29T22:07:26.298Z,32.08
2023-03-29T22:10:00.007Z,32.10
2023-03-29T22:12:35.802Z,31.68
2023-03-29T22:15:08.480Z,32.90
2023-03-29T22:17:46.040Z,31.48
2023-03-29T22:22:50.905Z,33.48
2023-03-29T22:25:22.390Z,31.65
2023-03-29T22:27:53.779Z,33.63
2023-03-29T22:30:25.117Z,33.67
2023-03-29T22:32:56.509Z,32.90
2023-03-29T22:35:27.369Z,32.67
2023-03-29T22:37:58.201Z,34.60
2023-03-29T22:40:29.456Z,33.70
2023-03-29T22:43:02.642Z,34.98
2023-03-29T22:45:33.010Z,34.80
2023-03-29T22:48:10.260Z,32.33
2023-03-29T22:50:42.804Z,34.27
2023-03-29T22:53:13.822Z,34.53
2023-03-29T22:55:46.522Z,35.58
2023-03-29T22:58:20.496Z,34.80
2023-03-29T23:00:52.227Z,34.83
2023-03-29T23:03:26.647Z,33.65
2023-03-29T23:06:00.059Z,34.63
2023-03-29T23:08:33.370Z,35.55
2023-03-29T23:11:09.340Z,37.50
2023-03-29T23:13:39.810Z,35.63
2023-03-29T23:16:11.121Z,35.13
2023-03-29T23:18:44.940Z,35.38
2023-03-29T23:21:16.629Z,36.70
2023-03-29T23:23:47.727Z,35.08
2023-03-29T23:26:19.512Z,36.45
2023-03-29T23:28:55.460Z,35.52
2023-03-29T23:31:30.504Z,36.13
2023-03-29T23:34:04.576Z,35.00
2023-03-29T23:36:35.455Z,36.10
2023-03-29T23:39:07.871Z,36.60
2023-03-29T23:41:43.003Z,37.23
2023-03-29T23:44:15.161Z,35.52
2023-03-29T23:46:46.303Z,37.28
2023-03-29T23:49:18.577Z,37.08
2023-03-29T23:51:49.692Z,35.88
2023-03-29T23:54:20.841Z,38.02
2023-03-29T23:56:52.063Z,39.88
2023-03-29T23:59:29.108Z,43.33
